Time,TemperatureF,DewpointF,PressureIn,WindDirection,WindDirectionDegrees,WindSpeedMPH,WindSpeedGustMPH,Humidity,HourlyPrecipIn,Conditions,Clouds,dailyrainin,SolarRadiationWatts/m^2,SoftwareType,DateUTC
2013-02-15 00:01:00,39.0,39.0,-100.00,ENE,73,0.0,0.0,99,0.00,,,0.00,0.000000,,2013-02-15 08:01:00,
2013-02-15 00:11:00,39.0,39.0,-100.00,ENE,73,0.0,0.0,99,0.00,,,0.00,0.000000,,2013-02-15 08:11:00,
2013-02-15 00:32:00,37.0,37.0,-100.00,SE,140,0.0,0.0,99,0.00,,,0.00,0.000000,,2013-02-15 08:32:00,
2013-02-15 00:42:00,37.0,37.0,-100.00,SE,140,0.0,0.0,99,0.00,,,0.00,0.000000,,2013-02-15 08:42:00,
2013-02-15 00:53:00,37.0,37.0,-100.00,SE,140,0.0,0.0,99,0.00,,,0.00,0.000000,,2013-02-15 08:53:00,
2013-02-15 01:01:00,37.0,37.0,-100.00,SE,140,0.0,0.0,99,0.00,,,0.00,0.000000,,2013-02-15 09:01:00,
2013-02-15 01:12:00,37.0,37.0,-100.00,SE,140,0.0,0.0,99,0.00,,,0.00,0.000000,,2013-02-15 09:12:00,
2013-02-15 01:42:00,38.0,38.0,-100.00,East,92,0.0,0.0,100,0.00,,,0.00,0.000000,,2013-02-15 09:42:00,
2013-02-15 01:52:00,38.0,38.0,-100.00,East,92,0.0,0.0,100,0.00,,,0.00,0.000000,,2013-02-15 09:52:00,
2013-02-15 02:01:00,38.0,38.0,-100.00,East,92,0.0,0.0,100,0.00,,,0.00,0.000000,,2013-02-15 10:01:00,
2013-02-15 02:11:00,38.0,38.0,-100.00,East,92,0.0,0.0,100,0.00,,,0.00,0.000000,,2013-02-15 10:11:00,
2013-02-15 02:42:00,36.0,36.0,-100.00,North,353,0.0,0.0,100,0.01,,,-99.99,0.000000,,2013-02-15 10:42:00,
2013-02-15 02:52:00,36.0,36.0,-100.00,North,353,0.0,0.0,100,0.01,,,-99.99,0.000000,,2013-02-15 10:52:00,
2013-02-15 03:01:00,36.0,36.0,-100.00,North,353,0.0,0.0,100,0.01,,,-99.99,0.000000,,2013-02-15 11:01:00,
2013-02-15 03:11:00,36.0,36.0,-100.00,North,353,0.0,0.0,100,0.01,,,-99.99,0.000000,,2013-02-15 11:11:00,
2013-02-15 03:32:00,36.0,36.0,-100.00,ENE,66,0.0,0.0,100,0.00,,,0.01,0.000000,,2013-02-15 11:32:00,
2013-02-15 03:42:00,36.0,36.0,-100.00,ENE,66,0.0,0.0,100,0.00,,,0.01,0.000000,,2013-02-15 11:42:00,
2013-02-15 03:52:00,36.0,36.0,-100.00,ENE,66,0.0,0.0,100,0.00,,,0.01,0.000000,,2013-02-15 11:52:00,
2013-02-15 04:01:00,36.0,36.0,-100.00,ENE,66,0.0,0.0,100,0.00,,,0.01,0.000000,,2013-02-15 12:01:00,
2013-02-15 04:11:00,36.0,36.0,-100.00,ENE,66,0.0,0.0,100,0.00,,,0.01,0.000000,,2013-02-15 12:11:00,
2013-02-15 04:32:00,35.0,35.0,-100.00,West,272,0.0,0.0,100,0.00,,,0.01,0.000000,,2013-02-15 12:32:00,
2013-02-15 04:42:00,35.0,35.0,-100.00,West,272,0.0,0.0,100,0.00,,,0.01,0.000000,,2013-02-15 12:42:00,
2013-02-15 04:52:00,35.0,35.0,-100.00,West,272,0.0,0.0,100,0.00,,,0.01,0.000000,,2013-02-15 12:52:00,
2013-02-15 05:02:00,35.0,35.0,-100.00,West,272,0.0,0.0,100,0.00,,,0.01,0.000000,,2013-02-15 13:02:00,
2013-02-15 05:11:00,35.0,35.0,-100.00,West,272,0.0,0.0,100,0.00,,,0.01,0.000000,,2013-02-15 13:11:00,
2013-02-15 05:42:00,36.0,36.0,-100.00,East,91,0.0,0.0,100,0.00,,,-99.99,0.000000,,2013-02-15 13:42:00,
2013-02-15 05:52:00,36.0,36.0,-100.00,East,91,0.0,0.0,100,0.00,,,-99.99,0.000000,,2013-02-15 13:52:00,
2013-02-15 06:01:00,36.0,36.0,-100.00,East,91,0.0,0.0,100,0.00,,,-99.99,0.000000,,2013-02-15 14:01:00,
2013-02-15 06:11:00,36.0,36.0,-100.00,East,91,0.0,0.0,100,0.00,,,-99.99,0.000000,,2013-02-15 14:11:00,
2013-02-15 06:42:00,37.0,37.0,-100.00,NE,46,0.0,0.0,100,0.00,,,-99.99,0.000000,,2013-02-15 14:42:00,
2013-02-15 06:52:00,37.0,37.0,-100.00,NE,46,0.0,0.0,100,0.00,,,-99.99,0.000000,,2013-02-15 14:52:00,
2013-02-15 07:01:00,37.0,37.0,-100.00,NE,46,0.0,0.0,100,0.00,,,-99.99,0.000000,,2013-02-15 15:01:00,
2013-02-15 07:11:00,37.0,37.0,-100.00,NE,46,0.0,0.0,100,0.00,,,-99.99,0.000000,,2013-02-15 15:11:00,
2013-02-15 07:32:00,36.0,36.0,-100.00,ENE,68,0.0,0.0,100,0.00,,,0.01,0.000000,,2013-02-15 15:32:00,
2013-02-15 07:42:00,36.0,36.0,-100.00,ENE,68,0.0,0.0,100,0.00,,,0.01,0.000000,,2013-02-15 15:42:00,
2013-02-15 07:52:00,36.0,36.0,-100.00,ENE,68,0.0,0.0,100,0.00,,,0.01,0.000000,,2013-02-15 15:52:00,
2013-02-15 08:01:00,36.0,36.0,-100.00,ENE,68,0.0,0.0,100,0.00,,,0.01,0.000000,,2013-02-15 16:01:00,
2013-02-15 08:11:00,36.0,36.0,-100.00,ENE,68,0.0,0.0,100,0.00,,,0.01,0.000000,,2013-02-15 16:11:00,
2013-02-15 08:32:00,38.0,38.0,-100.00,SSE,152,0.0,0.0,100,0.00,,,0.01,19.000000,,2013-02-15 16:32:00,
2013-02-15 08:43:00,38.0,38.0,-100.00,SSE,152,0.0,0.0,100,0.00,,,0.01,19.000000,,2013-02-15 16:43:00,
2013-02-15 08:52:00,38.0,38.0,-100.00,SSE,152,0.0,0.0,100,0.00,,,0.01,19.000000,,2013-02-15 16:52:00,
2013-02-15 09:01:00,38.0,38.0,-100.00,SSE,152,0.0,0.0,100,0.00,,,0.01,19.000000,,2013-02-15 17:01:00,
2013-02-15 09:11:00,38.0,38.0,-100.00,SSE,152,0.0,0.0,100,0.00,,,0.01,19.000000,,2013-02-15 17:11:00,
2013-02-15 09:32:00,37.0,37.0,-100.00,WNW,295,0.0,0.0,100,0.00,,,0.01,70.000000,,2013-02-15 17:32:00,
2013-02-15 09:42:00,37.0,37.0,-100.00,WNW,295,0.0,0.0,100,0.00,,,0.01,70.000000,,2013-02-15 17:42:00,
2013-02-15 09:52:00,37.0,37.0,-100.00,WNW,295,0.0,0.0,100,0.00,,,0.01,70.000000,,2013-02-15 17:52:00,
2013-02-15 10:01:00,37.0,37.0,-100.00,WNW,295,0.0,0.0,100,0.00,,,0.01,70.000000,,2013-02-15 18:01:00,
2013-02-15 10:11:00,37.0,37.0,-100.00,WNW,295,0.0,0.0,100,0.00,,,0.01,70.000000,,2013-02-15 18:11:00,
2013-02-15 10:42:00,39.0,39.0,-100.00,NE,35,0.0,0.0,100,0.00,,,0.01,114.000000,,2013-02-15 18:42:00,
2013-02-15 10:52:00,39.0,39.0,-100.00,NE,35,0.0,0.0,100,0.00,,,0.01,114.000000,,2013-02-15 18:52:00,
2013-02-15 11:01:00,39.0,39.0,-100.00,NE,35,0.0,0.0,100,0.00,,,0.01,114.000000,,2013-02-15 19:01:00,
2013-02-15 11:11:00,39.0,39.0,-100.00,NE,35,0.0,0.0,100,0.00,,,0.01,114.000000,,2013-02-15 19:11:00,
2013-02-15 11:42:00,40.0,40.0,-100.00,SSW,198,0.0,0.0,100,0.00,,,0.01,178.000000,,2013-02-15 19:42:00,
2013-02-15 11:52:00,40.0,40.0,-100.00,SSW,198,0.0,0.0,100,0.00,,,0.01,178.000000,,2013-02-15 19:52:00,
2013-02-15 12:01:00,40.0,40.0,-100.00,SSW,198,0.0,0.0,100,0.00,,,0.01,178.000000,,2013-02-15 20:01:00,
2013-02-15 12:11:00,40.0,40.0,-100.00,SSW,198,0.0,0.0,100,0.00,,,0.01,178.000000,,2013-02-15 20:11:00,
2013-02-15 12:42:00,42.0,42.0,-100.00,WSW,240,0.0,0.0,100,0.00,,,0.01,210.000000,,2013-02-15 20:42:00,
2013-02-15 12:52:00,42.0,42.0,-100.00,WSW,240,0.0,0.0,100,0.00,,,0.01,210.000000,,2013-02-15 20:52:00,
2013-02-15 13:01:00,42.0,42.0,-100.00,WSW,240,0.0,0.0,100,0.00,,,0.01,210.000000,,2013-02-15 21:01:00,
2013-02-15 13:11:00,42.0,42.0,-100.00,WSW,240,0.0,0.0,100,0.00,,,0.01,210.000000,,2013-02-15 21:11:00,
2013-02-15 13:42:00,43.0,43.0,-100.00,SW,236,0.0,0.0,100,0.00,,,0.01,206.000000,,2013-02-15 21:42:00,
2013-02-15 13:52:00,43.0,43.0,-100.00,SW,236,0.0,0.0,100,0.00,,,0.01,206.000000,,2013-02-15 21:52:00,
2013-02-15 14:02:00,43.0,43.0,-100.00,SW,236,0.0,0.0,100,0.00,,,0.01,206.000000,,2013-02-15 22:02:00,
2013-02-15 14:11:00,43.0,43.0,-100.00,SW,236,0.0,0.0,100,0.00,,,0.01,206.000000,,2013-02-15 22:11:00,
2013-02-15 14:42:00,46.0,46.0,-100.00,SSE,158,0.0,0.0,99,0.00,,,0.01,305.000000,,2013-02-15 22:42:00,
2013-02-15 14:52:00,46.0,46.0,-100.00,SSE,158,0.0,0.0,99,0.00,,,0.01,305.000000,,2013-02-15 22:52:00,
2013-02-15 15:02:00,46.0,46.0,-100.00,SSE,158,0.0,0.0,99,0.00,,,0.01,305.000000,,2013-02-15 23:02:00,
2013-02-15 15:11:00,46.0,46.0,-100.00,SSE,158,0.0,0.0,99,0.00,,,0.01,305.000000,,2013-02-15 23:11:00,
2013-02-15 15:32:00,52.0,45.0,-100.00,East,95,0.0,0.0,78,0.00,,,0.01,455.000000,,2013-02-15 23:32:00,
2013-02-15 15:42:00,52.0,45.0,-100.00,East,95,0.0,0.0,78,0.00,,,0.01,455.000000,,2013-02-15 23:42:00,
2013-02-15 15:52:00,52.0,45.0,-100.00,East,95,0.0,0.0,78,0.00,,,0.01,455.000000,,2013-02-15 23:52:00,
2013-02-15 16:02:00,52.0,45.0,-100.00,East,95,0.0,0.0,78,0.00,,,0.01,455.000000,,2013-02-16 00:02:00,
2013-02-15 16:11:00,52.0,45.0,-100.00,East,95,0.0,0.0,78,0.00,,,0.01,455.000000,,2013-02-16 00:11:00,
2013-02-15 16:32:00,55.0,46.0,-100.00,SW,232,0.0,0.0,72,0.00,,,0.01,302.000000,,2013-02-16 00:32:00,
2013-02-15 16:42:00,55.0,46.0,-100.00,SW,232,0.0,0.0,72,0.00,,,0.01,302.000000,,2013-02-16 00:42:00,
2013-02-15 16:52:00,55.0,46.0,-100.00,SW,232,0.0,0.0,72,0.00,,,0.01,302.000000,,2013-02-16 00:52:00,
2013-02-15 17:02:00,55.0,46.0,-100.00,SW,232,0.0,0.0,72,0.00,,,0.01,302.000000,,2013-02-16 01:02:00,
2013-02-15 17:11:00,55.0,46.0,-100.00,SW,232,0.0,0.0,72,0.00,,,0.01,302.000000,,2013-02-16 01:11:00,
2013-02-15 17:32:00,51.0,46.0,-100.00,West,259,0.0,0.0,82,0.00,,,-99.99,130.000000,,2013-02-16 01:32:00,
2013-02-15 17:42:00,51.0,46.0,-100.00,West,259,0.0,0.0,82,0.00,,,-99.99,130.000000,,2013-02-16 01:42:00,
2013-02-15 17:52:00,51.0,46.0,-100.00,West,259,0.0,0.0,82,0.00,,,-99.99,130.000000,,2013-02-16 01:52:00,
2013-02-15 18:01:00,51.0,46.0,-100.00,West,259,0.0,0.0,82,0.00,,,-99.99,130.000000,,2013-02-16 02:01:00,
2013-02-15 18:11:00,51.0,46.0,-100.00,West,259,0.0,0.0,82,0.00,,,-99.99,130.000000,,2013-02-16 02:11:00,
2013-02-15 18:42:00,45.0,43.0,-100.00,SE,141,0.0,1.0,94,0.00,,,0.01,10.000000,,2013-02-16 02:42:00,
2013-02-15 18:52:00,45.0,43.0,-100.00,SE,141,0.0,1.0,94,0.00,,,0.01,10.000000,,2013-02-16 02:52:00,
2013-02-15 19:01:00,45.0,43.0,-100.00,SE,141,0.0,1.0,94,0.00,,,0.01,10.000000,,2013-02-16 03:01:00,
2013-02-15 19:11:00,45.0,43.0,-100.00,SE,141,0.0,1.0,94,0.00,,,0.01,10.000000,,2013-02-16 03:11:00,
2013-02-15 19:42:00,43.0,42.0,-100.00,SE,138,0.0,0.0,98,0.00,,,0.01,0.000000,,2013-02-16 03:42:00,
2013-02-15 19:52:00,43.0,42.0,-100.00,SE,138,0.0,0.0,98,0.00,,,0.01,0.000000,,2013-02-16 03:52:00,
2013-02-15 20:01:00,43.0,42.0,-100.00,SE,138,0.0,0.0,98,0.00,,,0.01,0.000000,,2013-02-16 04:01:00,
2013-02-15 20:11:00,43.0,42.0,-100.00,SE,138,0.0,0.0,98,0.00,,,0.01,0.000000,,2013-02-16 04:11:00,
2013-02-15 20:32:00,42.0,42.0,-100.00,NW,326,0.0,0.0,99,0.00,,,0.01,0.000000,,2013-02-16 04:32:00,
2013-02-15 20:42:00,42.0,42.0,-100.00,NW,326,0.0,0.0,99,0.00,,,0.01,0.000000,,2013-02-16 04:42:00,
2013-02-15 20:52:00,42.0,42.0,-100.00,NW,326,0.0,0.0,99,0.00,,,0.01,0.000000,,2013-02-16 04:52:00,
2013-02-15 21:01:00,42.0,42.0,-100.00,NW,326,0.0,0.0,99,0.00,,,0.01,0.000000,,2013-02-16 05:01:00,
2013-02-15 21:11:00,42.0,42.0,-100.00,NW,326,0.0,0.0,99,0.00,,,0.01,0.000000,,2013-02-16 05:11:00,
2013-02-15 21:32:00,41.0,41.0,-100.00,NNE,30,0.0,0.0,100,0.00,,,0.01,0.000000,,2013-02-16 05:32:00,
2013-02-15 21:42:00,41.0,41.0,-100.00,NNE,30,0.0,0.0,100,0.00,,,0.01,0.000000,,2013-02-16 05:42:00,
2013-02-15 21:52:00,41.0,41.0,-100.00,NNE,30,0.0,0.0,100,0.00,,,0.01,0.000000,,2013-02-16 05:52:00,
2013-02-15 22:01:00,41.0,41.0,-100.00,NNE,30,0.0,0.0,100,0.00,,,0.01,0.000000,,2013-02-16 06:01:00,
2013-02-15 22:11:00,41.0,41.0,-100.00,NNE,30,0.0,0.0,100,0.00,,,0.01,0.000000,,2013-02-16 06:11:00,
2013-02-15 22:42:00,39.0,39.0,-100.00,NW,322,0.0,0.0,100,0.00,,,0.01,0.000000,,2013-02-16 06:42:00,
2013-02-15 22:52:00,39.0,39.0,-100.00,NW,322,0.0,0.0,100,0.00,,,0.01,0.000000,,2013-02-16 06:52:00,
2013-02-15 23:02:00,39.0,39.0,-100.00,NW,322,0.0,0.0,100,0.00,,,0.01,0.000000,,2013-02-16 07:02:00,
2013-02-15 23:11:00,39.0,39.0,-100.00,NW,322,0.0,0.0,100,0.00,,,0.01,0.000000,,2013-02-16 07:11:00,
2013-02-15 23:32:00,37.0,37.0,-100.00,ESE,116,0.0,0.0,100,0.00,,,0.01,0.000000,,2013-02-16 07:32:00,
2013-02-15 23:42:00,37.0,37.0,-100.00,ESE,116,0.0,0.0,100,0.00,,,0.01,0.000000,,2013-02-16 07:42:00,
2013-02-15 23:53:00,37.0,37.0,-100.00,ESE,116,0.0,0.0,100,0.00,,,0.01,0.000000,,2013-02-16 07:53:00,